createdAt,value
2019-05-12T00:02:04.882Z,5.28
2019-05-12T00:04:31.932Z,3.22
2019-05-12T00:06:59.307Z,5.72
2019-05-12T00:09:28.299Z,4.50
2019-05-12T00:11:55.878Z,6.03
2019-05-12T00:14:23.210Z,6.05
2019-05-12T00:16:50.567Z,4.78
2019-05-12T00:19:18.020Z,6.72
2019-05-12T00:21:45.074Z,8.68
2019-05-12T00:24:12.118Z,5.92
2019-05-12T00:26:39.622Z,8.53
2019-05-12T00:29:07.683Z,7.17
2019-05-12T00:31:35.210Z,6.00
2019-05-12T00:34:02.332Z,8.15
2019-05-12T00:36:29.446Z,5.87
2019-05-12T00:38:58.037Z,6.47
2019-05-12T00:41:25.417Z,9.38
2019-05-12T00:43:52.700Z,8.15
2019-05-12T00:46:19.997Z,8.80
2019-05-12T00:48:48.261Z,4.42
2019-05-12T00:51:15.320Z,9.65
2019-05-12T00:53:43.528Z,5.53
2019-05-12T00:56:10.572Z,5.53
2019-05-12T00:58:38.265Z,6.87
2019-05-12T01:01:07.957Z,7.50
2019-05-12T01:03:34.113Z,6.08
2019-05-12T01:06:01.153Z,10.55
2019-05-12T01:08:28.225Z,5.50
2019-05-12T01:10:55.494Z,7.50
2019-05-12T01:13:22.545Z,6.67
2019-05-12T01:15:49.830Z,12.07
2019-05-12T01:18:18.120Z,8.35
2019-05-12T01:20:47.775Z,10.53
2019-05-12T01:23:14.134Z,9.13
2019-05-12T01:25:41.173Z,6.87
2019-05-12T01:28:08.440Z,8.65
2019-05-12T01:30:35.523Z,10.70
2019-05-12T01:33:02.639Z,10.55
2019-05-12T01:35:29.923Z,10.23
2019-05-12T01:38:01.125Z,9.83
2019-05-12T01:40:28.670Z,7.12
2019-05-12T01:42:58.225Z,11.15
2019-05-12T01:45:24.820Z,6.80
2019-05-12T01:47:52.120Z,8.90
2019-05-12T01:50:19.178Z,12.07
2019-05-12T01:52:47.879Z,10.28
2019-05-12T01:55:15.235Z,12.68
2019-05-12T01:57:42.276Z,10.28
2019-05-12T02:00:09.533Z,8.78
2019-05-12T02:02:38.526Z,10.00
2019-05-12T02:05:06.177Z,8.80
2019-05-12T02:07:34.041Z,8.38
2019-05-12T02:10:01.389Z,9.43
2019-05-12T02:12:28.881Z,8.15
2019-05-12T02:14:56.139Z,9.20
2019-05-12T02:17:23.421Z,11.65
2019-05-12T02:19:50.714Z,8.88
2019-05-12T02:22:18.976Z,9.13
2019-05-12T02:24:47.897Z,9.95
2019-05-12T02:27:15.155Z,7.08
2019-05-12T02:29:44.134Z,14.60
2019-05-12T02:32:11.411Z,10.93
2019-05-12T02:34:38.463Z,11.68
2019-05-12T02:37:05.825Z,9.18
2019-05-12T02:39:35.277Z,10.55
2019-05-12T02:42:05.163Z,10.55
2019-05-12T02:44:31.163Z,14.18
2019-05-12T02:46:58.454Z,9.35
2019-05-12T02:49:25.562Z,12.75
2019-05-12T02:51:54.699Z,10.23
2019-05-12T02:54:21.329Z,8.85
2019-05-12T02:56:48.613Z,8.45
2019-05-12T02:59:16.451Z,8.03
2019-05-12T03:01:45.218Z,10.28
2019-05-12T03:04:14.495Z,15.88
2019-05-12T03:06:44.399Z,12.05
2019-05-12T03:09:10.033Z,12.05
2019-05-12T03:11:37.325Z,12.90
2019-05-12T03:14:04.348Z,10.68
2019-05-12T03:16:34.631Z,11.45
2019-05-12T03:19:04.526Z,13.10
2019-05-12T03:21:30.337Z,14.20
2019-05-12T03:23:57.624Z,10.10
2019-05-12T03:26:25.001Z,8.40
2019-05-12T03:28:55.450Z,11.63
2019-05-12T03:31:25.626Z,10.32
2019-05-12T03:33:53.072Z,13.58
2019-05-12T03:36:18.989Z,17.32
2019-05-12T03:38:46.005Z,15.20
2019-05-12T03:41:14.705Z,14.58
2019-05-12T03:43:44.871Z,12.18
2019-05-12T03:46:11.309Z,13.13
2019-05-12T03:48:38.337Z,10.85
2019-05-12T03:51:05.919Z,9.88
2019-05-12T03:53:35.196Z,14.43
2019-05-12T03:56:04.370Z,14.68
2019-05-12T03:58:49.483Z,8.33
2019-05-12T04:01:16.812Z,10.72
2019-05-12T04:03:45.086Z,13.53
2019-05-12T04:06:15.397Z,11.50
2019-05-12T04:08:41.492Z,13.62
2019-05-12T04:11:08.900Z,12.15
2019-05-12T04:13:36.255Z,12.18
2019-05-12T04:16:04.873Z,10.98
2019-05-12T04:18:34.979Z,11.88
2019-05-12T04:21:05.177Z,10.68
2019-05-12T04:23:30.605Z,13.65
2019-05-12T04:26:06.962Z,10.78
2019-05-12T04:28:26.686Z,10.13
2019-05-12T04:30:54.501Z,9.90
2019-05-12T04:33:25.421Z,15.20
2019-05-12T04:35:51.052Z,15.68
2019-05-12T04:38:18.425Z,10.70
2019-05-12T04:40:45.690Z,15.32
2019-05-12T04:43:14.658Z,19.57
2019-05-12T04:45:44.787Z,18.95
2019-05-12T04:48:15.004Z,16.30
2019-05-12T04:50:40.814Z,15.53
2019-05-12T04:53:08.187Z,16.20
2019-05-12T04:55:35.930Z,18.30
2019-05-12T04:58:04.465Z,21.77
2019-05-12T05:00:34.815Z,22.32
2019-05-12T05:03:01.299Z,18.52
2019-05-12T05:05:28.345Z,24.15
2019-05-12T05:07:56.806Z,19.48
2019-05-12T05:10:24.913Z,19.92
2019-05-12T05:12:54.120Z,18.57
2019-05-12T05:15:24.718Z,20.32
2019-05-12T05:17:50.488Z,21.12
2019-05-12T05:20:17.519Z,21.80
2019-05-12T05:22:44.570Z,20.97
2019-05-12T05:25:14.236Z,18.82
2019-05-12T05:27:40.973Z,18.67
2019-05-12T05:30:08.329Z,19.85
2019-05-12T05:32:35.702Z,17.37
2019-05-12T05:35:03.953Z,20.92
2019-05-12T05:37:39.617Z,18.32
2019-05-12T05:40:00.562Z,19.82
2019-05-12T05:42:32.680Z,19.00
2019-05-12T05:44:56.716Z,19.62
2019-05-12T05:47:25.482Z,15.78
2019-05-12T05:49:53.996Z,18.98
2019-05-12T05:52:24.641Z,25.50
2019-05-12T05:54:53.140Z,16.55
2019-05-12T05:57:20.061Z,15.53
2019-05-12T05:59:48.515Z,23.65
2019-05-12T06:02:15.821Z,18.98
2019-05-12T06:04:45.497Z,15.25
2019-05-12T06:07:14.228Z,18.50
2019-05-12T06:09:43.151Z,17.07
2019-05-12T06:12:10.174Z,16.48
2019-05-12T06:14:46.666Z,18.20
2019-05-12T06:17:21.071Z,14.93
2019-05-12T06:19:48.423Z,17.90
2019-05-12T06:22:18.393Z,15.88
2019-05-12T06:24:49.068Z,17.02
2019-05-12T06:27:20.317Z,16.77
2019-05-12T06:29:43.801Z,13.88
2019-05-12T06:32:14.342Z,18.37
2019-05-12T06:34:43.510Z,15.68
2019-05-12T06:37:17.106Z,17.60
2019-05-12T06:39:51.051Z,13.93
2019-05-12T06:42:24.944Z,16.05
2019-05-12T06:50:16.415Z,15.00
2019-05-12T06:52:53.194Z,15.30
2019-05-12T06:55:20.600Z,14.18
2019-05-12T06:57:50.143Z,11.08
2019-05-12T07:00:22.372Z,13.75
2019-05-12T07:02:52.274Z,12.45
2019-05-12T07:05:15.341Z,15.50
2019-05-12T07:07:45.940Z,14.15
2019-05-12T07:10:19.749Z,11.53
2019-05-12T07:12:57.660Z,13.62
2019-05-12T07:15:09.315Z,15.05
2019-05-12T07:17:47.717Z,8.90
2019-05-12T07:20:14.573Z,13.05
2019-05-12T07:22:45.888Z,10.18
2019-05-12T07:25:10.165Z,10.00
2019-05-12T07:27:39.747Z,10.18
2019-05-12T07:30:05.966Z,15.80
2019-05-12T07:32:34.362Z,10.15
2019-05-12T07:35:07.255Z,9.40
2019-05-12T07:37:34.612Z,7.22
2019-05-12T07:40:01.663Z,8.73
2019-05-12T07:42:31.440Z,9.53
2019-05-12T07:44:58.321Z,10.93
2019-05-12T07:47:29.316Z,7.22
2019-05-12T07:49:54.561Z,8.43
2019-05-12T07:52:24.123Z,8.98
2019-05-12T07:54:53.710Z,8.95
2019-05-12T07:57:19.432Z,10.13
2019-05-12T07:59:46.455Z,8.23
2019-05-12T08:02:14.356Z,13.50
2019-05-12T08:04:43.854Z,9.63
2019-05-12T08:07:10.762Z,11.50
2019-05-12T08:09:37.819Z,10.65
2019-05-12T08:12:09.847Z,10.78
2019-05-12T08:14:33.894Z,7.42
2019-05-12T08:17:19.454Z,7.42
2019-05-12T08:22:34.538Z,12.60
2019-05-12T08:25:04.152Z,6.33
2019-05-12T08:27:39.133Z,5.70
2019-05-12T08:32:48.107Z,10.68
2019-05-12T08:35:25.483Z,9.83
2019-05-12T08:37:58.628Z,7.15
2019-05-12T08:43:16.802Z,7.47
2019-05-12T08:45:44.303Z,8.75
2019-05-12T08:48:16.945Z,6.30
2019-05-12T08:50:42.835Z,6.62
2019-05-12T08:53:12.285Z,7.55
2019-05-12T08:55:44.478Z,10.78
2019-05-12T08:58:26.508Z,6.00
2019-05-12T09:00:46.586Z,8.13
2019-05-12T09:03:09.283Z,6.78
2019-05-12T09:05:38.479Z,4.08
2019-05-12T09:08:05.068Z,10.10
2019-05-12T09:10:34.381Z,7.10
2019-05-12T09:13:03.687Z,6.67
2019-05-12T09:15:29.956Z,4.67
2019-05-12T09:17:57.123Z,7.35
2019-05-12T09:20:24.357Z,7.67
2019-05-12T09:23:00.561Z,5.83
2019-05-12T09:25:25.881Z,5.72
2019-05-12T09:27:54.274Z,4.55
2019-05-12T09:30:21.329Z,8.98
2019-05-12T09:32:50.329Z,4.90
2019-05-12T09:35:17.438Z,5.58
2019-05-12T09:37:44.482Z,6.30
2019-05-12T09:40:14.699Z,7.92
2019-05-12T09:45:17.759Z,9.43
2019-05-12T09:47:45.072Z,7.85
2019-05-12T09:50:16.081Z,5.58
2019-05-12T09:52:44.082Z,6.03
2019-05-12T09:55:11.451Z,7.22
2019-05-12T09:57:45.041Z,6.70
2019-05-12T10:00:13.706Z,6.67
2019-05-12T10:02:43.615Z,4.58
2019-05-12T10:05:19.956Z,5.03
2019-05-12T10:07:48.206Z,9.20
2019-05-12T10:10:18.362Z,5.60
2019-05-12T10:18:11.066Z,6.03
2019-05-12T10:20:39.675Z,5.33
2019-05-12T10:23:18.233Z,4.78
2019-05-12T10:25:39.917Z,3.15
2019-05-12T10:28:13.900Z,3.72
2019-05-12T10:30:38.035Z,4.10
2019-05-12T10:33:05.438Z,5.33
2019-05-12T10:35:34.963Z,3.15
2019-05-12T10:38:07.696Z,4.20
2019-05-12T10:40:30.512Z,4.05
2019-05-12T10:42:57.827Z,4.78
2019-05-12T10:45:26.326Z,6.47
2019-05-12T10:47:53.681Z,4.45
2019-05-12T10:50:23.301Z,7.20
2019-05-12T10:55:27.521Z,6.58
2019-05-12T10:58:01.593Z,6.12
2019-05-12T11:00:25.307Z,2.70
2019-05-12T11:02:53.980Z,4.12
2019-05-12T11:05:23.300Z,2.12
2019-05-12T11:07:50.137Z,2.95
2019-05-12T11:10:29.866Z,4.33
2019-05-12T11:12:59.212Z,3.90
2019-05-12T11:15:30.739Z,5.72
2019-05-12T11:17:58.091Z,4.10
2019-05-12T11:20:41.427Z,3.27
2019-05-12T11:23:08.761Z,3.42
2019-05-12T11:25:36.116Z,2.42
2019-05-12T11:28:04.182Z,4.47
2019-05-12T11:30:47.413Z,2.92
2019-05-12T11:33:14.765Z,7.30
2019-05-12T11:35:45.028Z,3.83
2019-05-12T11:38:13.480Z,5.25
2019-05-12T11:40:40.965Z,3.22
2019-05-12T11:43:08.613Z,4.53
2019-05-12T11:45:35.949Z,5.97
2019-05-12T11:48:10.240Z,3.17
2019-05-12T11:50:32.012Z,3.98
2019-05-12T11:52:59.343Z,3.10
2019-05-12T11:55:31.343Z,3.85
2019-05-12T12:03:38.173Z,4.22
2019-05-12T12:06:05.467Z,6.55
2019-05-12T12:08:37.105Z,4.72
2019-05-12T12:11:03.845Z,6.17
2019-05-12T12:13:30.914Z,5.08
2019-05-12T12:16:00.704Z,4.03
2019-05-12T12:18:28.327Z,5.70
2019-05-12T12:21:02.867Z,5.60
2019-05-12T12:23:24.649Z,6.95
2019-05-12T12:25:53.447Z,4.70
2019-05-12T12:28:21.096Z,3.70
2019-05-12T12:30:52.560Z,5.85
2019-05-12T12:33:17.206Z,5.10
2019-05-12T12:35:44.619Z,4.47
2019-05-12T12:38:14.100Z,4.28
2019-05-12T12:40:40.946Z,5.08
2019-05-12T12:43:08.026Z,6.22
2019-05-12T12:45:39.898Z,3.72
2019-05-12T12:48:04.095Z,5.87
2019-05-12T12:50:31.128Z,3.95
2019-05-12T12:52:58.521Z,5.40
2019-05-12T12:55:25.879Z,4.92
2019-05-12T12:57:53.231Z,4.17
2019-05-12T13:00:29.713Z,4.80
2019-05-12T13:02:50.345Z,3.12
2019-05-12T13:05:17.404Z,3.83
2019-05-12T13:07:44.445Z,5.58
2019-05-12T13:10:14.041Z,5.03
2019-05-12T13:12:40.637Z,2.87
2019-05-12T13:15:08.011Z,6.83
2019-05-12T13:17:41.543Z,2.05
2019-05-12T13:20:05.122Z,3.02
2019-05-12T13:22:33.726Z,4.10
2019-05-12T13:25:04.429Z,5.58
2019-05-12T13:27:30.424Z,5.72
2019-05-12T13:29:57.756Z,3.20
2019-05-12T13:32:32.320Z,5.28
2019-05-12T13:34:53.901Z,5.00
2019-05-12T13:37:23.081Z,2.70
2019-05-12T13:39:56.801Z,3.72
2019-05-12T13:43:33.909Z,3.22
2019-05-12T13:46:00.435Z,4.53
2019-05-12T13:48:27.800Z,4.28
2019-05-12T13:51:10.292Z,3.55
2019-05-12T13:53:24.366Z,3.30
2019-05-12T13:55:53.757Z,2.40
2019-05-12T13:58:20.994Z,2.95
2019-05-12T14:01:08.012Z,2.40
2019-05-12T14:03:16.782Z,1.75
2019-05-12T14:05:50.392Z,4.25
2019-05-12T14:08:14.583Z,2.58
2019-05-12T14:10:44.722Z,2.65
2019-05-12T14:13:10.980Z,2.45
2019-05-12T14:15:38.350Z,3.70
2019-05-12T14:18:10.311Z,4.17
2019-05-12T14:20:34.609Z,3.98
2019-05-12T14:23:03.917Z,1.80
2019-05-12T14:25:33.029Z,4.20
2019-05-12T14:28:05.380Z,3.25
2019-05-12T14:30:29.555Z,3.05
2019-05-12T14:32:59.122Z,3.00
2019-05-12T14:35:26.067Z,1.72
2019-05-12T14:37:54.154Z,1.05
2019-05-12T14:40:29.264Z,2.45
2019-05-12T14:42:49.999Z,3.65
2019-05-12T14:45:19.418Z,2.62
2019-05-12T14:47:46.304Z,3.62
2019-05-12T14:50:14.026Z,4.28
2019-05-12T14:52:43.732Z,3.80
2019-05-12T14:55:10.417Z,2.12
2019-05-12T14:57:39.347Z,4.60
2019-05-12T15:00:11.141Z,3.72
2019-05-12T15:02:35.209Z,4.70
2019-05-12T15:05:06.495Z,1.65
2019-05-12T15:07:31.245Z,1.70
2019-05-12T15:10:02.256Z,2.92
2019-05-12T15:12:27.031Z,1.27
2019-05-12T15:15:18.491Z,3.90
2019-05-12T15:17:39.629Z,2.60
2019-05-12T15:20:10.621Z,3.65
2019-05-12T15:22:36.122Z,2.40
2019-05-12T15:25:05.423Z,2.22
2019-05-12T15:27:42.378Z,3.30
2019-05-12T15:30:01.102Z,2.00
2019-05-12T15:32:28.807Z,1.95
2019-05-12T15:34:56.316Z,1.75
2019-05-12T15:37:23.869Z,2.15
2019-05-12T15:39:53.528Z,5.50
2019-05-12T15:42:20.193Z,1.62
2019-05-12T15:44:48.462Z,2.00
2019-05-12T15:47:15.817Z,1.65
2019-05-12T15:49:44.230Z,2.20
2019-05-12T15:52:14.034Z,1.98
2019-05-12T15:54:45.699Z,0.93
2019-05-12T15:57:09.248Z,1.00
2019-05-12T15:59:36.626Z,1.32
2019-05-12T16:02:12.417Z,1.95
2019-05-12T16:04:42.706Z,1.42
2019-05-12T16:07:04.109Z,1.42
2019-05-12T16:09:31.540Z,1.65
2019-05-12T16:11:58.892Z,5.15
2019-05-12T16:14:30.345Z,1.00
2019-05-12T16:16:54.671Z,4.05
2019-05-12T16:19:23.456Z,2.12
2019-05-12T16:21:50.754Z,2.62
2019-05-12T16:24:17.791Z,3.42
2019-05-12T16:26:51.701Z,4.85
2019-05-12T16:29:13.929Z,1.47
2019-05-12T16:31:47.887Z,1.05
2019-05-12T16:34:10.435Z,2.27
2019-05-12T16:36:41.170Z,2.90
2019-05-12T16:39:07.784Z,2.12
2019-05-12T16:41:35.243Z,2.65
2019-05-12T16:44:07.833Z,3.30
2019-05-12T16:46:31.040Z,6.30
2019-05-12T16:49:08.498Z,3.33
2019-05-12T16:59:21.947Z,2.50
2019-05-12T17:01:51.201Z,2.15
2019-05-12T17:07:18.896Z,2.65
2019-05-12T17:09:45.382Z,3.62
2019-05-12T17:12:17.129Z,3.30
2019-05-12T17:14:50.054Z,3.55
2019-05-12T17:17:21.515Z,1.50
2019-05-12T17:19:54.102Z,1.42
2019-05-12T17:27:51.642Z,7.47
2019-05-12T17:30:23.853Z,3.30
2019-05-12T17:33:00.708Z,2.42
2019-05-12T17:35:34.182Z,2.37
2019-05-12T17:38:05.640Z,4.03
2019-05-12T17:40:58.901Z,4.53
2019-05-12T17:43:20.233Z,4.40
2019-05-12T17:48:58.748Z,4.05
2019-05-12T17:51:48.088Z,2.85
2019-05-12T17:54:24.322Z,6.83
2019-05-12T17:59:41.949Z,7.12
2019-05-12T18:02:16.685Z,4.53
2019-05-12T18:04:43.782Z,2.35
2019-05-12T18:07:14.422Z,6.17
2019-05-12T18:09:45.106Z,3.60
2019-05-12T18:14:54.533Z,2.40
2019-05-12T18:17:24.037Z,3.08
2019-05-12T18:22:47.143Z,2.60
2019-05-12T18:25:30.360Z,2.40
2019-05-12T18:30:34.883Z,4.55
2019-05-12T18:35:34.557Z,2.85
2019-05-12T18:38:07.980Z,2.22
2019-05-12T18:40:35.081Z,1.95
2019-05-12T18:53:43.836Z,1.72
2019-05-12T18:56:29.960Z,3.55
2019-05-12T19:01:40.578Z,2.55
2019-05-12T19:04:07.901Z,4.17
2019-05-12T19:06:38.430Z,2.35
2019-05-12T19:11:46.368Z,1.75
2019-05-12T19:19:39.780Z,2.60
2019-05-12T19:22:09.756Z,3.80
2019-05-12T19:24:36.432Z,4.95
2019-05-12T19:27:16.636Z,2.55
2019-05-12T19:29:48.329Z,2.40
2019-05-12T19:32:28.102Z,3.20
2019-05-12T19:37:45.331Z,1.52
2019-05-12T19:40:18.420Z,2.02
2019-05-12T19:45:33.671Z,1.30
2019-05-12T19:48:00.228Z,6.58
2019-05-12T19:50:28.423Z,1.95
2019-05-12T19:52:55.749Z,2.65
2019-05-12T19:55:24.111Z,2.67
2019-05-12T19:57:51.242Z,2.00
2019-05-12T20:00:18.516Z,1.50
2019-05-12T20:02:45.867Z,2.72
2019-05-12T20:05:17.219Z,3.42
2019-05-12T20:07:41.648Z,5.87
2019-05-12T20:10:12.285Z,4.05
2019-05-12T20:15:30.215Z,1.60
2019-05-12T20:17:58.288Z,2.65
2019-05-12T20:20:35.225Z,3.12
2019-05-12T20:22:54.432Z,2.45
2019-05-12T20:25:23.488Z,1.05
2019-05-12T20:27:55.843Z,3.02
2019-05-12T20:30:21.119Z,2.08
2019-05-12T20:32:48.294Z,2.75
2019-05-12T20:35:15.396Z,2.42
2019-05-12T20:37:44.241Z,2.75
2019-05-12T20:40:13.420Z,3.33
2019-05-12T20:42:44.215Z,2.95
2019-05-12T20:45:08.648Z,2.35
2019-05-12T20:47:39.152Z,2.75
2019-05-12T20:50:04.514Z,3.72
2019-05-12T20:52:31.534Z,2.67
2019-05-12T20:54:59.941Z,2.02
2019-05-12T20:57:27.147Z,3.58
2019-05-12T20:59:58.299Z,2.37
2019-05-12T21:02:23.470Z,4.78
2019-05-12T21:05:00.583Z,2.40
2019-05-12T21:07:21.951Z,2.45
2019-05-12T21:09:48.294Z,1.75
2019-05-12T21:12:15.341Z,4.90
2019-05-12T21:14:51.166Z,3.98
2019-05-12T21:17:15.782Z,2.05
2019-05-12T21:19:41.544Z,4.10
2019-05-12T21:22:09.170Z,1.98
2019-05-12T21:24:39.319Z,1.67
2019-05-12T21:27:09.418Z,4.05
2019-05-12T21:29:34.757Z,2.22
2019-05-12T21:32:02.975Z,3.08
2019-05-12T21:34:30.762Z,3.72
2019-05-12T21:36:58.964Z,2.35
2019-05-12T21:39:26.835Z,2.70
2019-05-12T21:41:54.888Z,5.55
2019-05-12T21:44:24.581Z,2.05
2019-05-12T21:46:58.777Z,1.37
2019-05-12T21:49:20.782Z,2.22
2019-05-12T21:51:50.479Z,3.87
2019-05-12T21:54:16.557Z,7.20
2019-05-12T21:56:49.170Z,3.67
2019-05-12T21:59:15.518Z,2.45
2019-05-12T22:01:43.389Z,2.52
2019-05-12T22:04:10.395Z,2.92
2019-05-12T22:06:37.441Z,2.37
2019-05-12T22:09:04.710Z,3.22
2019-05-12T22:11:34.391Z,6.25
2019-05-12T22:14:00.833Z,6.55
2019-05-12T22:16:29.621Z,3.05
2019-05-12T22:18:59.381Z,2.00
2019-05-12T22:21:25.962Z,2.87
2019-05-12T22:23:54.208Z,1.80
2019-05-12T22:26:22.007Z,2.85
2019-05-12T22:28:51.042Z,3.08
2019-05-12T22:31:18.047Z,1.70
2019-05-12T22:33:51.629Z,5.03
2019-05-12T22:36:25.771Z,2.60
2019-05-12T22:38:44.404Z,2.87
2019-05-12T22:41:13.543Z,3.10
2019-05-12T22:43:43.482Z,3.40
2019-05-12T22:46:09.997Z,1.65
2019-05-12T22:48:40.481Z,1.85
2019-05-12T22:51:14.332Z,1.70
2019-05-12T22:53:34.794Z,4.37
2019-05-12T22:56:11.643Z,2.12
2019-05-12T22:58:30.888Z,1.57
2019-05-12T23:01:00.988Z,3.80
2019-05-12T23:03:26.918Z,3.02
2019-05-12T23:06:00.066Z,3.87
2019-05-12T23:08:24.667Z,2.55
2019-05-12T23:10:53.973Z,1.50
2019-05-12T23:13:23.798Z,2.12
2019-05-12T23:15:51.628Z,3.70
2019-05-12T23:18:19.526Z,2.15
2019-05-12T23:20:48.863Z,2.02
2019-05-12T23:23:18.781Z,3.37
2019-05-12T23:25:44.634Z,2.60
2019-05-12T23:28:11.678Z,3.20
2019-05-12T23:30:43.782Z,3.17
2019-05-12T23:33:07.442Z,1.75
2019-05-12T23:35:39.485Z,2.45
2019-05-12T23:38:04.419Z,3.05
2019-05-12T23:40:34.264Z,5.67
2019-05-12T23:43:00.668Z,3.20
2019-05-12T23:45:27.698Z,3.17
2019-05-12T23:47:54.744Z,2.75
2019-05-12T23:50:24.148Z,2.17
2019-05-12T23:52:51.038Z,2.60
2019-05-12T23:55:18.310Z,3.50
2019-05-12T23:57:45.377Z,2.40
